Lena, Illinois
Current Conditions -  °F | °C
As of 1:35 PM on Monday 20 Oct 2014 (Local Time) from KFEP Reporting Station
Clear Clear  
Wind Chill: 62°   Ceiling: Unl
Heat Index: 62°   Visibility: 10mi
Dew Point: 43°   Wind: 14mph
Humidity: 50%   Direction: 330°NNW
Pressure: 29.91"   Gusts: 21mph
Location:  42.38°N, 89.82°W
Report Text: KFEP 201835Z AUTO 33012G18KT 10SM CLR 17/06 A2991 RMK AO2 T01670062
Loading
Personal Weather Stations






























Interactive Weather Map New forecast layout! Learn more

10-Day Weather Forecast

Advertisements
Track Severe Weather on mobile